Time;durP1;ratioP1;P1;durP2;ratioP2;P2;SDS_P1;SDS_P2;PMS_P1;PMS_P2;Temp;Humidity;BMP_temperature;BMP_pressure;BME280_temperature;BME280_humidity;BME280_pressure;Samples;Min_cycle;Max_cycle;Signal;HPM_P1;HPM_P2
2022/07/13 00:03:26;;;;;;;1.30;0.80;;;23.20;51.80;;;;;;220347;1268;25432;-57
2022/07/13 00:08:30;;;;;;;1.60;0.80;;;23.10;51.50;;;;;;220402;1267;24013;-56
2022/07/13 00:13:34;;;;;;;2.00;0.80;;;23.10;51.90;;;;;;220289;1270;22692;-56
2022/07/13 00:18:38;;;;;;;1.40;0.80;;;23.10;51.60;;;;;;220918;1267;25619;-56
2022/07/13 00:23:45;;;;;;;1.30;0.80;;;23.10;51.60;;;;;;220356;1270;25585;-58
2022/07/13 00:28:48;;;;;;;1.50;0.90;;;23.00;51.60;;;;;;220464;1267;24220;-52
2022/07/13 00:33:52;;;;;;;1.50;0.90;;;23.10;51.70;;;;;;220676;1267;23035;-56
2022/07/13 00:38:56;;;;;;;1.40;0.80;;;23.10;51.70;;;;;;220262;1267;24221;-55
2022/07/13 00:44:09;;;;;;;1.20;0.80;;;23.00;51.60;;;;;;220390;1267;22538;-55
2022/07/13 00:49:13;;;;;;;1.40;0.80;;;23.10;51.70;;;;;;220580;1267;22567;-57
2022/07/13 00:54:19;;;;;;;1.50;0.80;;;23.00;52.00;;;;;;220552;1267;24023;-57
2022/07/13 00:59:24;;;;;;;1.80;0.80;;;23.00;51.70;;;;;;220875;1267;23955;-56
2022/07/13 01:04:29;;;;;;;1.80;1.00;;;23.00;51.70;;;;;;220700;1267;22813;-57
2022/07/13 01:09:32;;;;;;;1.50;0.90;;;23.00;51.80;;;;;;220542;1267;24012;-57
2022/07/13 01:14:37;;;;;;;1.20;0.70;;;23.00;52.10;;;;;;220884;1267;25037;-57
2022/07/13 01:19:41;;;;;;;1.30;0.80;;;23.00;52.10;;;;;;220801;1267;22526;-57
2022/07/13 01:24:46;;;;;;;2.30;1.00;;;22.90;51.80;;;;;;220347;1267;22627;-57
2022/07/13 01:29:51;;;;;;;1.50;0.90;;;23.00;51.90;;;;;;220704;1268;22554;-57
2022/07/13 01:34:55;;;;;;;0.70;0.60;;;23.00;51.90;;;;;;220036;1267;552852;-56
2022/07/13 01:39:59;;;;;;;1.50;1.00;;;23.00;51.90;;;;;;220362;1267;24696;-54
2022/07/13 01:45:07;;;;;;;1.40;0.90;;;22.90;51.90;;;;;;221017;1266;25314;-57
2022/07/13 01:50:13;;;;;;;1.30;0.80;;;22.90;51.90;;;;;;220616;1267;22529;-55
2022/07/13 01:55:27;;;;;;;1.10;0.80;;;22.90;51.90;;;;;;220790;1267;22531;-55
2022/07/13 02:00:39;;;;;;;2.30;1.00;;;22.90;52.00;;;;;;220855;1267;24986;-56
2022/07/13 02:05:43;;;;;;;1.80;0.90;;;22.90;52.00;;;;;;220450;1267;22533;-56
2022/07/13 02:10:47;;;;;;;1.60;1.00;;;22.90;52.00;;;;;;220311;1268;22696;-61
2022/07/13 02:15:50;;;;;;;2.70;1.40;;;22.90;52.00;;;;;;220402;1267;24359;-56
2022/07/13 02:20:54;;;;;;;1.70;0.90;;;22.80;52.00;;;;;;220383;1270;25435;-55
2022/07/13 02:25:58;;;;;;;2.00;1.10;;;22.90;52.20;;;;;;220870;1267;22531;-56
2022/07/13 02:31:02;;;;;;;1.00;0.70;;;22.80;52.00;;;;;;220378;1267;22550;-55
2022/07/13 02:36:06;;;;;;;1.30;0.90;;;22.80;52.00;;;;;;220214;1268;22554;-55
2022/07/13 02:41:10;;;;;;;1.30;0.90;;;22.80;52.10;;;;;;220585;1270;22532;-57
2022/07/13 02:46:14;;;;;;;1.40;0.80;;;22.80;52.10;;;;;;220664;1270;25307;-57
2022/07/13 02:51:18;;;;;;;1.10;0.90;;;22.80;52.40;;;;;;220417;1267;22555;-55
2022/07/13 02:56:21;;;;;;;1.40;1.00;;;22.80;52.10;;;;;;220422;1270;23172;-52
2022/07/13 03:01:25;;;;;;;2.00;1.00;;;22.80;52.10;;;;;;220281;1267;23936;-54
2022/07/13 03:06:30;;;;;;;1.80;1.10;;;22.80;52.50;;;;;;220296;1267;22700;-56
2022/07/13 03:11:34;;;;;;;1.50;1.00;;;22.80;52.20;;;;;;220200;1270;25336;-56
2022/07/13 03:16:37;;;;;;;1.60;0.80;;;22.70;52.50;;;;;;221011;1267;22531;-56
2022/07/13 03:21:41;;;;;;;1.80;0.80;;;22.70;52.10;;;;;;220495;1267;23918;-56
2022/07/13 03:26:45;;;;;;;1.50;0.80;;;22.70;52.40;;;;;;220236;1267;24452;-55
2022/07/13 03:31:50;;;;;;;1.70;0.90;;;22.70;52.80;;;;;;220548;1270;25458;-57
2022/07/13 03:36:54;;;;;;;1.70;1.00;;;22.70;52.20;;;;;;220381;1267;25565;-55
2022/07/13 03:41:58;;;;;;;1.30;0.80;;;22.70;52.20;;;;;;220597;1269;24408;-56
2022/07/13 03:47:02;;;;;;;1.90;1.00;;;22.70;52.20;;;;;;220503;1270;23945;-55
2022/07/13 03:52:06;;;;;;;1.80;0.90;;;22.70;52.50;;;;;;220517;1270;24381;-56
2022/07/13 03:57:11;;;;;;;2.40;0.70;;;22.70;52.20;;;;;;220182;1270;24238;-55
2022/07/13 04:02:14;;;;;;;1.60;1.00;;;22.70;52.20;;;;;;220042;1270;22526;-56
2022/07/13 04:07:19;;;;;;;1.20;0.80;;;22.70;52.20;;;;;;220435;1267;22589;-55
2022/07/13 04:12:23;;;;;;;2.00;1.10;;;22.70;52.20;;;;;;220614;1270;24415;-57
2022/07/13 04:17:28;;;;;;;3.70;1.10;;;22.70;52.30;;;;;;220694;1267;22535;-58
2022/07/13 04:22:32;;;;;;;1.50;1.00;;;22.70;52.30;;;;;;221038;1267;24318;-54
2022/07/13 04:27:36;;;;;;;1.40;0.80;;;22.70;52.30;;;;;;220529;1268;26485;-55
2022/07/13 04:32:41;;;;;;;2.30;1.00;;;22.70;52.40;;;;;;220349;1268;24203;-55
2022/07/13 04:37:46;;;;;;;2.20;0.90;;;22.70;52.40;;;;;;220220;1270;25489;-56
2022/07/13 04:42:50;;;;;;;1.30;0.80;;;22.70;52.70;;;;;;220288;1270;25355;-57
2022/07/13 04:47:55;;;;;;;1.50;1.00;;;22.70;52.70;;;;;;220628;1267;22547;-55
2022/07/13 04:53:00;;;;;;;1.50;0.90;;;22.70;52.50;;;;;;220782;1267;22526;-56
2022/07/13 04:58:05;;;;;;;1.60;0.90;;;22.70;52.40;;;;;;220772;1267;24300;-55
2022/07/13 05:03:09;;;;;;;1.40;0.80;;;22.70;52.40;;;;;;220688;1267;25242;-56
2022/07/13 05:08:13;;;;;;;2.70;1.00;;;22.80;52.50;;;;;;220551;1267;22548;-57
2022/07/13 05:13:16;;;;;;;1.40;1.00;;;22.80;53.00;;;;;;220547;1267;24252;-57
2022/07/13 05:18:27;;;;;;;1.90;1.00;;;22.80;52.40;;;;;;220272;1270;25233;-56
2022/07/13 05:23:35;;;;;;;2.20;1.10;;;22.80;52.40;;;;;;220495;1267;25493;-57
2022/07/13 05:28:39;;;;;;;1.70;1.00;;;22.80;52.30;;;;;;220461;1271;24467;-55
2022/07/13 05:33:43;;;;;;;1.50;0.90;;;22.80;52.30;;;;;;220139;1270;25586;-57
2022/07/13 05:38:53;;;;;;;1.70;1.20;;;22.80;52.30;;;;;;220053;1267;24212;-57
2022/07/13 05:43:57;;;;;;;2.00;1.00;;;22.90;52.50;;;;;;220331;1267;22598;-55
2022/07/13 05:49:01;;;;;;;1.90;1.10;;;22.80;52.50;;;;;;220858;1267;22820;-57
2022/07/13 05:54:06;;;;;;;1.50;1.00;;;22.90;52.50;;;;;;220601;1268;22883;-59
2022/07/13 05:59:33;;;;;;;1.40;0.80;;;22.90;52.60;;;;;;220336;1267;25301;-55
2022/07/13 06:04:38;;;;;;;2.70;1.30;;;22.90;52.70;;;;;;220259;1268;24281;-55
2022/07/13 06:09:41;;;;;;;3.30;1.20;;;23.00;53.00;;;;;;220677;1267;25529;-58
2022/07/13 06:14:45;;;;;;;1.50;1.00;;;23.00;53.00;;;;;;220481;1270;25439;-55
2022/07/13 06:19:49;;;;;;;1.80;1.00;;;23.00;52.80;;;;;;220407;1270;22554;-53
2022/07/13 06:24:53;;;;;;;2.00;1.20;;;23.00;52.60;;;;;;220455;1268;22731;-55
2022/07/13 06:29:57;;;;;;;1.70;1.00;;;23.00;52.70;;;;;;220536;1270;24645;-56
2022/07/13 06:35:00;;;;;;;2.10;1.20;;;23.10;52.80;;;;;;220767;1268;22914;-55
2022/07/13 06:40:05;;;;;;;2.70;1.30;;;23.00;52.70;;;;;;220444;1268;22762;-56
2022/07/13 06:45:14;;;;;;;1.70;1.10;;;23.10;52.90;;;;;;220560;1268;22742;-55
2022/07/13 06:50:17;;;;;;;1.90;1.00;;;23.10;52.90;;;;;;220619;1269;22569;-56
2022/07/13 06:55:21;;;;;;;1.60;1.00;;;23.10;52.80;;;;;;220596;1268;22532;-55
2022/07/13 07:00:25;;;;;;;1.90;1.10;;;23.10;52.70;;;;;;220393;1271;22556;-54
2022/07/13 07:05:29;;;;;;;1.60;0.90;;;23.10;52.80;;;;;;220660;1268;22704;-56
2022/07/13 07:10:33;;;;;;;1.70;1.00;;;23.10;52.90;;;;;;220704;1268;25483;-55
2022/07/13 07:15:42;;;;;;;1.60;1.10;;;23.20;53.00;;;;;;220135;1270;23058;-54
2022/07/13 07:20:46;;;;;;;1.50;1.00;;;23.20;53.00;;;;;;220654;1268;24343;-55
2022/07/13 07:25:49;;;;;;;1.70;1.10;;;23.20;52.90;;;;;;220578;1268;22657;-56
2022/07/13 07:30:53;;;;;;;2.40;1.00;;;23.20;53.00;;;;;;220606;1268;24564;-54
2022/07/13 07:35:58;;;;;;;2.00;0.90;;;23.20;53.00;;;;;;220457;1269;23194;-53
2022/07/13 07:41:10;;;;;;;2.30;0.90;;;23.30;53.20;;;;;;220486;1268;22554;-52
2022/07/13 07:46:21;;;;;;;2.10;0.90;;;23.30;53.20;;;;;;220359;1268;25307;-56
2022/07/13 07:51:26;;;;;;;2.30;1.00;;;23.30;53.50;;;;;;220563;1268;23956;-50
2022/07/13 07:56:50;;;;;;;1.80;1.10;;;23.30;52.70;;;;;;220368;1267;22549;-57
2022/07/13 08:01:53;;;;;;;1.70;1.10;;;23.30;53.10;;;;;;220393;1268;24269;-56
2022/07/13 08:06:57;;;;;;;2.20;1.10;;;23.40;53.20;;;;;;220548;1268;24339;-52
2022/07/13 08:12:04;;;;;;;1.50;1.10;;;23.40;53.10;;;;;;220482;1268;22606;-59
2022/07/13 08:17:07;;;;;;;1.60;1.00;;;23.50;53.20;;;;;;220550;1268;24876;-53
2022/07/13 08:22:11;;;;;;;2.40;1.20;;;23.50;53.20;;;;;;220991;1267;22536;-56
2022/07/13 08:27:15;;;;;;;2.00;1.20;;;23.50;53.10;;;;;;220591;1268;22543;-55
2022/07/13 08:32:19;;;;;;;2.10;1.10;;;23.50;53.10;;;;;;220663;1268;22550;-54
2022/07/13 08:42:47;;;;;;;1.50;0.90;;;23.60;53.00;;;;;;220809;1268;22530;-56
2022/07/13 08:47:56;;;;;;;2.00;1.00;;;23.60;53.70;;;;;;220490;1268;22737;-56
2022/07/13 08:53:02;;;;;;;3.30;1.00;;;23.60;53.50;;;;;;220862;1268;22504;-53
2022/07/13 08:58:16;;;;;;;1.70;1.00;;;23.60;53.10;;;;;;220511;1267;22594;-57
2022/07/13 09:03:22;;;;;;;4.90;1.10;;;23.60;53.20;;;;;;220736;1268;22678;-60
2022/07/13 09:08:26;;;;;;;2.70;1.20;;;23.70;53.10;;;;;;220357;1267;23033;-57
2022/07/13 09:13:41;;;;;;;1.60;1.00;;;23.80;53.10;;;;;;220356;1268;22564;-57
2022/07/13 09:18:59;;;;;;;3.70;1.20;;;23.80;53.40;;;;;;220045;1269;24205;-57
2022/07/13 09:24:05;;;;;;;2.10;1.20;;;23.80;53.10;;;;;;220515;1267;22564;-57
2022/07/13 09:29:12;;;;;;;5.20;1.00;;;23.80;53.30;;;;;;220742;1267;22578;-54
2022/07/13 09:34:23;;;;;;;1.60;1.00;;;23.80;53.20;;;;;;220289;1267;25504;-54
2022/07/13 09:39:55;;;;;;;3.70;1.00;;;23.90;53.50;;;;;;220171;1268;22586;-55
2022/07/13 09:50:40;;;;;;;2.50;1.20;;;23.90;53.20;;;;;;220795;1267;22701;-57
2022/07/13 09:55:51;;;;;;;1.70;1.10;;;24.00;53.10;;;;;;220254;1268;22536;-57
2022/07/13 10:01:11;;;;;;;4.10;1.20;;;24.00;53.30;;;;;;219933;1269;22625;-57
2022/07/13 10:06:22;;;;;;;2.50;1.20;;;24.10;53.20;;;;;;220416;1267;25448;-57
2022/07/13 10:11:35;;;;;;;2.30;1.40;;;24.10;53.10;;;;;;220418;1267;24418;-56
2022/07/13 10:16:49;;;;;;;2.40;1.30;;;24.10;53.10;;;;;;220567;1268;22542;-58
2022/07/13 10:21:54;;;;;;;1.80;1.00;;;24.10;53.00;;;;;;220621;1268;22683;-57
2022/07/13 10:27:30;;;;;;;4.80;1.20;;;24.10;53.00;;;;;;220314;1270;23233;-58
2022/07/13 10:32:43;;;;;;;1.80;1.00;;;24.20;53.00;;;;;;220991;1267;24393;-56
2022/07/13 10:37:59;;;;;;;1.60;1.10;;;24.10;52.90;;;;;;220827;1267;22707;-57
2022/07/13 10:43:11;;;;;;;2.50;1.10;;;24.10;52.80;;;;;;220160;1270;25783;-56
2022/07/13 10:48:42;;;;;;;2.20;1.30;;;24.20;53.00;;;;;;220766;1267;25645;-57
2022/07/13 10:53:52;;;;;;;3.40;1.20;;;24.20;52.80;;;;;;220383;1267;22542;-58
2022/07/13 10:58:56;;;;;;;1.90;1.20;;;24.20;53.20;;;;;;220464;1267;24402;-58
2022/07/13 11:04:01;;;;;;;3.60;1.30;;;24.40;52.90;;;;;;220439;1267;22566;-59
2022/07/13 11:09:21;;;;;;;3.60;1.30;;;24.30;53.00;;;;;;220695;1268;22551;-58
2022/07/13 11:14:40;;;;;;;3.60;1.30;;;24.40;53.20;;;;;;220416;1267;22555;-58
2022/07/13 11:19:56;;;;;;;2.80;1.30;;;24.40;53.30;;;;;;220620;1267;23727;-58
2022/07/13 11:25:19;;;;;;;3.60;1.40;;;24.40;53.20;;;;;;220942;1267;22613;-59
2022/07/13 11:30:34;;;;;;;5.80;1.40;;;24.50;52.90;;;;;;220420;1267;24293;-57
2022/07/13 11:35:43;;;;;;;4.70;1.30;;;24.30;54.80;;;;;;220621;1268;25720;-57
2022/07/13 11:40:47;;;;;;;3.30;1.70;;;24.40;54.10;;;;;;220238;1268;22547;-58
2022/07/13 11:45:51;;;;;;;3.50;1.40;;;24.50;53.90;;;;;;220917;1267;22642;-58
2022/07/13 11:50:54;;;;;;;2.20;1.30;;;24.50;53.90;;;;;;220408;1268;22576;-58
2022/07/13 11:56:06;;;;;;;6.10;1.70;;;24.60;53.80;;;;;;220253;1268;22535;-57
2022/07/13 12:01:18;;;;;;;3.20;1.20;;;24.60;53.80;;;;;;220423;1267;24340;-58
2022/07/13 12:06:27;;;;;;;3.50;1.50;;;24.70;53.80;;;;;;220951;1267;25446;-59
2022/07/13 12:11:31;;;;;;;3.90;1.50;;;24.70;53.80;;;;;;220239;1267;22535;-59
2022/07/13 12:16:37;;;;;;;6.10;1.70;;;24.80;53.70;;;;;;220500;1267;22548;-58
2022/07/13 12:21:56;;;;;;;5.60;1.40;;;24.80;53.60;;;;;;220534;1267;22540;-59
2022/07/13 12:27:01;;;;;;;3.10;1.60;;;24.80;53.50;;;;;;220496;1267;22574;-58
2022/07/13 12:32:04;;;;;;;2.40;1.60;;;24.90;53.50;;;;;;220505;1267;23621;-57
2022/07/13 12:37:08;;;;;;;2.30;1.40;;;24.70;51.50;;;;;;220535;1267;24233;-58
2022/07/13 12:42:12;;;;;;;3.60;1.40;;;24.70;54.90;;;;;;220327;1267;24319;-58
2022/07/13 12:47:22;;;;;;;2.20;1.40;;;24.70;54.30;;;;;;220513;1267;24353;-57
2022/07/13 12:52:26;;;;;;;;;;;24.80;53.90;;;;;;220662;1267;25015;-58
2022/07/13 12:57:34;;;;;;;3.50;1.50;;;24.70;53.80;;;;;;220137;1267;22544;-58
2022/07/13 13:02:40;;;;;;;2.30;1.50;;;24.70;55.10;;;;;;220320;1268;22710;-58
2022/07/13 13:07:45;;;;;;;2.90;1.60;;;24.70;54.30;;;;;;220640;1267;22549;-58
2022/07/13 13:12:52;;;;;;;2.90;1.30;;;24.80;53.80;;;;;;220608;1267;22688;-59
2022/07/13 13:17:57;;;;;;;2.50;1.50;;;24.80;53.80;;;;;;220594;1266;23934;-58
2022/07/13 13:23:01;;;;;;;1.80;1.10;;;24.90;54.10;;;;;;220641;1267;24084;-58
2022/07/13 13:28:05;;;;;;;4.40;1.60;;;24.90;54.00;;;;;;220723;1267;24440;-59
2022/07/13 13:33:17;;;;;;;1.80;1.20;;;24.90;53.70;;;;;;219963;1267;451833;-57
2022/07/13 13:38:21;;;;;;;2.10;1.30;;;24.90;53.70;;;;;;220555;1267;22597;-58
2022/07/13 13:43:25;;;;;;;1.80;1.20;;;24.90;53.60;;;;;;220413;1267;25963;-58
2022/07/13 13:48:33;;;;;;;4.40;1.20;;;24.90;53.60;;;;;;220643;1267;23168;-61
2022/07/13 13:53:41;;;;;;;2.20;1.30;;;24.90;53.50;;;;;;220354;1268;25389;-57
2022/07/13 13:58:50;;;;;;;2.70;1.20;;;24.90;54.00;;;;;;220430;1267;25243;-57
2022/07/13 14:03:54;;;;;;;2.10;1.20;;;24.90;53.50;;;;;;220874;1267;22534;-58
2022/07/13 14:08:58;;;;;;;2.60;1.30;;;24.90;53.50;;;;;;220590;1267;25322;-57
2022/07/13 14:14:17;;;;;;;2.10;1.10;;;25.00;54.00;;;;;;220376;1268;24236;-57
2022/07/13 14:19:33;;;;;;;3.30;1.80;;;25.00;53.40;;;;;;220399;1267;24215;-60
2022/07/13 14:24:59;;;;;;;2.80;1.70;;;25.00;53.50;;;;;;220437;1267;24635;-52
2022/07/13 14:30:10;;;;;;;4.00;1.90;;;25.00;53.50;;;;;;220731;1267;22514;-51
2022/07/13 14:35:26;;;;;;;3.30;1.90;;;25.10;53.80;;;;;;220543;1267;22581;-54
2022/07/13 14:40:39;;;;;;;4.00;1.80;;;25.10;53.80;;;;;;220668;1267;24256;-50
2022/07/13 14:45:49;;;;;;;4.80;2.00;;;25.10;54.30;;;;;;220575;1270;22632;-53
2022/07/13 14:51:09;;;;;;;3.20;2.00;;;25.20;54.80;;;;;;221189;1267;25365;-56
2022/07/13 14:56:15;;;;;;;4.70;1.70;;;25.20;54.40;;;;;;220701;1267;22563;-52
2022/07/13 15:01:19;;;;;;;3.50;2.00;;;25.20;54.80;;;;;;220485;1268;22716;-53
2022/07/13 15:06:23;;;;;;;4.50;2.20;;;25.20;55.70;;;;;;220476;1267;23895;-53
2022/07/13 15:11:27;;;;;;;3.20;1.70;;;25.30;56.50;;;;;;220519;1267;23960;-51
2022/07/13 15:16:31;;;;;;;4.50;1.50;;;25.30;56.60;;;;;;220530;1267;25375;-51
2022/07/13 15:21:38;;;;;;;3.90;1.80;;;25.30;56.30;;;;;;220856;1267;22976;-52
2022/07/13 15:26:48;;;;;;;4.70;1.80;;;25.40;56.90;;;;;;220675;1267;24270;-51
2022/07/13 15:31:55;;;;;;;6.50;2.10;;;25.40;57.10;;;;;;220657;1267;22913;-54
2022/07/13 15:37:00;;;;;;;6.10;1.90;;;25.40;56.90;;;;;;220435;1267;22533;-52
2022/07/13 15:42:03;;;;;;;4.70;2.30;;;25.40;56.60;;;;;;220389;1267;22703;-53
2022/07/13 15:47:07;;;;;;;4.00;2.10;;;25.30;56.10;;;;;;220400;1267;22553;-54
2022/07/13 15:52:14;;;;;;;3.80;2.00;;;25.30;56.00;;;;;;220341;1266;23940;-50
2022/07/13 15:57:17;;;;;;;5.40;2.30;;;25.30;56.20;;;;;;220404;1267;24303;-50
2022/07/13 16:02:21;;;;;;;3.60;1.90;;;25.30;55.70;;;;;;220560;1268;22543;-51
2022/07/13 16:07:25;;;;;;;5.90;2.30;;;25.30;55.60;;;;;;220561;1267;22751;-52
2022/07/13 16:12:29;;;;;;;7.20;1.90;;;25.30;55.40;;;;;;220530;1267;24365;-52
2022/07/13 16:17:35;;;;;;;3.30;1.50;;;25.30;55.20;;;;;;220781;1266;22561;-52
2022/07/13 16:22:40;;;;;;;4.70;1.80;;;25.30;55.10;;;;;;220837;1267;25342;-53
2022/07/13 16:27:45;;;;;;;3.90;1.80;;;25.30;55.40;;;;;;220604;1267;25252;-53
2022/07/13 16:32:52;;;;;;;2.90;1.70;;;25.30;55.10;;;;;;220360;1270;24282;-52
2022/07/13 16:37:57;;;;;;;3.40;2.10;;;25.20;55.00;;;;;;220902;1267;22711;-50
2022/07/13 16:43:10;;;;;;;3.40;1.90;;;25.20;55.10;;;;;;220582;1268;22624;-52
2022/07/13 16:48:14;;;;;;;4.00;1.80;;;25.20;55.00;;;;;;220267;1267;22529;-53
2022/07/13 16:53:21;;;;;;;2.70;1.70;;;25.20;54.80;;;;;;220716;1267;24462;-50
2022/07/13 16:58:25;;;;;;;4.60;2.00;;;25.20;54.80;;;;;;220623;1267;23140;-52
2022/07/13 17:03:28;;;;;;;2.90;1.90;;;25.20;54.80;;;;;;220546;1267;24220;-50
2022/07/13 17:08:34;;;;;;;2.60;1.80;;;25.20;54.80;;;;;;220462;1268;25285;-53
2022/07/13 17:13:39;;;;;;;2.60;1.90;;;25.20;54.80;;;;;;220799;1267;24293;-52
2022/07/13 17:18:58;;;;;;;2.50;1.70;;;25.20;54.60;;;;;;220892;1267;22687;-53
2022/07/13 17:24:06;;;;;;;2.60;1.50;;;25.20;54.60;;;;;;220573;1267;22551;-55
2022/07/13 17:29:10;;;;;;;2.30;1.50;;;25.20;54.60;;;;;;220571;1267;22558;-50
2022/07/13 17:34:14;;;;;;;2.40;1.70;;;25.10;54.60;;;;;;220509;1267;22525;-52
2022/07/13 17:39:18;;;;;;;3.70;1.70;;;25.10;54.60;;;;;;220363;1270;22534;-52
2022/07/13 17:44:23;;;;;;;4.00;1.80;;;25.10;54.60;;;;;;220366;1267;22989;-51
2022/07/13 17:49:29;;;;;;;2.90;1.90;;;25.10;54.50;;;;;;220696;1267;22623;-50
2022/07/13 17:54:32;;;;;;;3.80;1.70;;;25.10;54.50;;;;;;220314;1268;22551;-53
2022/07/13 17:59:43;;;;;;;2.90;1.90;;;25.10;54.50;;;;;;220748;1267;24282;-50
2022/07/13 18:04:47;;;;;;;2.50;2.00;;;25.10;54.50;;;;;;220686;1268;24155;-49
2022/07/13 18:09:50;;;;;;;3.80;1.60;;;25.10;54.50;;;;;;220601;1267;25245;-51
2022/07/13 18:14:57;;;;;;;2.20;1.70;;;25.10;54.50;;;;;;220637;1267;22540;-49
2022/07/13 18:20:06;;;;;;;2.60;1.90;;;25.10;54.50;;;;;;220660;1268;25291;-49
2022/07/13 18:25:11;;;;;;;2.60;1.80;;;25.10;54.40;;;;;;220363;1269;26240;-52
2022/07/13 18:30:15;;;;;;;2.50;1.80;;;25.10;54.80;;;;;;220495;1269;24192;-53
2022/07/13 18:35:20;;;;;;;3.10;1.60;;;25.10;54.40;;;;;;220430;1268;22647;-51
2022/07/13 18:40:24;;;;;;;2.50;1.50;;;25.00;54.50;;;;;;220213;1268;22715;-49
2022/07/13 18:45:30;;;;;;;2.60;1.80;;;25.10;54.50;;;;;;220575;1268;22631;-54
2022/07/13 18:50:36;;;;;;;3.70;1.60;;;25.00;54.50;;;;;;220498;1269;25244;-50
2022/07/13 18:55:41;;;;;;;2.60;1.70;;;25.10;54.40;;;;;;220535;1268;22566;-53
2022/07/13 19:00:45;;;;;;;2.40;1.70;;;25.00;54.30;;;;;;220400;1268;24412;-48
2022/07/13 19:05:49;;;;;;;2.10;1.60;;;25.00;54.30;;;;;;220370;1268;23063;-52
2022/07/13 19:10:53;;;;;;;2.70;1.70;;;25.00;54.30;;;;;;220243;1268;22588;-49
2022/07/13 19:15:57;;;;;;;3.10;1.70;;;25.00;54.30;;;;;;220255;1268;22544;-49
2022/07/13 19:21:02;;;;;;;2.20;1.60;;;25.00;54.30;;;;;;220429;1268;22541;-50
2022/07/13 19:31:29;;;;;;;2.90;1.80;;;25.00;54.60;;;;;;220795;1267;23061;-49
2022/07/13 19:36:32;;;;;;;2.20;1.60;;;25.00;54.30;;;;;;220492;1267;25376;-50
2022/07/13 19:41:37;;;;;;;2.90;1.60;;;25.00;54.70;;;;;;220532;1267;24398;-52
2022/07/13 19:46:42;;;;;;;2.90;1.50;;;25.00;54.30;;;;;;220692;1267;25346;-49
2022/07/13 19:51:49;;;;;;;2.10;1.60;;;25.00;54.30;;;;;;220809;1267;24427;-51
2022/07/13 19:57:00;;;;;;;3.10;1.80;;;24.90;54.30;;;;;;220869;1267;25477;-51
2022/07/13 20:02:24;;;;;;;1.90;1.30;;;25.00;54.70;;;;;;220816;1267;24235;-55
2022/07/13 20:07:49;;;;;;;2.20;1.40;;;25.00;54.30;;;;;;220573;1267;22791;-48
2022/07/13 20:13:04;;;;;;;2.00;1.30;;;25.00;54.30;;;;;;220610;1267;22547;-51
2022/07/13 20:18:12;;;;;;;2.10;1.30;;;24.90;54.10;;;;;;220488;1267;24384;-49
2022/07/13 20:23:20;;;;;;;2.10;1.50;;;24.90;54.10;;;;;;220380;1267;24428;-50
2022/07/13 20:28:38;;;;;;;2.30;1.40;;;24.90;54.10;;;;;;220840;1267;22525;-51
2022/07/13 20:34:02;;;;;;;2.00;1.50;;;24.90;54.10;;;;;;220377;1267;22531;-50
2022/07/13 20:39:23;;;;;;;3.80;1.60;;;24.90;54.10;;;;;;220931;1267;22536;-54
2022/07/13 20:45:02;;;;;;;2.50;1.40;;;24.90;54.10;;;;;;220663;1268;25250;-50
2022/07/13 20:50:30;;;;;;;2.50;1.60;;;24.90;54.20;;;;;;220409;1267;24499;-49
2022/07/13 20:55:41;;;;;;;2.40;1.40;;;24.90;54.20;;;;;;219534;1272;24249;-52
2022/07/13 21:00:56;;;;;;;2.40;1.60;;;24.90;54.20;;;;;;219946;1273;22541;-52
2022/07/13 21:06:19;;;;;;;5.60;1.60;;;24.90;54.30;;;;;;219827;1273;22618;-53
2022/07/13 21:11:33;;;;;;;2.10;1.40;;;24.90;54.60;;;;;;219857;1273;22592;-49
2022/07/13 21:16:36;;;;;;;2.40;1.80;;;24.80;54.30;;;;;;219481;1273;22564;-50
2022/07/13 21:21:50;;;;;;;3.30;1.60;;;24.90;54.40;;;;;;219847;1273;25235;-53
2022/07/13 21:26:55;;;;;;;2.50;1.50;;;24.90;54.50;;;;;;220396;1267;23571;-55
2022/07/13 21:31:59;;;;;;;2.40;1.50;;;24.90;54.50;;;;;;220537;1268;22701;-50
2022/07/13 21:37:02;;;;;;;2.20;1.30;;;24.80;55.00;;;;;;220466;1267;22557;-55
2022/07/13 21:42:09;;;;;;;2.50;1.60;;;24.80;54.40;;;;;;220686;1267;22528;-53
2022/07/13 21:47:21;;;;;;;2.20;1.60;;;24.80;54.40;;;;;;220799;1267;24224;-50
2022/07/13 21:52:27;;;;;;;;;;;24.80;54.60;;;;;;220948;1267;26103;-51
2022/07/13 21:57:35;;;;;;;2.30;1.70;;;24.80;54.20;;;;;;220480;1267;25255;-50
2022/07/13 22:02:50;;;;;;;2.50;1.50;;;24.80;54.60;;;;;;220537;1267;23045;-53
2022/07/13 22:07:53;;;;;;;2.50;1.50;;;24.70;54.50;;;;;;220275;1270;26484;-53
2022/07/13 22:13:37;;;;;;;3.10;1.70;;;24.80;54.90;;;;;;220908;1267;24125;-54
2022/07/13 22:19:27;;;;;;;2.20;1.60;;;24.80;54.60;;;;;;220659;1270;24219;-56
2022/07/13 22:25:08;;;;;;;2.30;1.60;;;24.80;54.60;;;;;;220234;1269;24210;-52
2022/07/13 22:30:55;;;;;;;2.90;1.20;;;24.70;54.90;;;;;;220291;1270;24239;-53
2022/07/13 22:36:38;;;;;;;2.70;1.70;;;24.80;54.90;;;;;;220590;1268;23014;-53
2022/07/13 22:42:28;;;;;;;2.50;1.50;;;24.70;54.60;;;;;;220776;1270;22566;-52
2022/07/13 22:48:14;;;;;;;2.10;1.50;;;24.70;54.60;;;;;;220521;1270;25216;-53
2022/07/13 22:54:02;;;;;;;2.10;1.50;;;24.70;54.60;;;;;;220526;1271;23278;-50
2022/07/13 22:59:48;;;;;;;2.50;1.60;;;24.70;54.60;;;;;;220161;1270;22551;-56
2022/07/13 23:05:30;;;;;;;2.00;1.50;;;24.70;54.70;;;;;;220695;1270;22551;-55
2022/07/13 23:11:14;;;;;;;2.70;1.30;;;24.70;54.70;;;;;;220237;1270;22592;-53
2022/07/13 23:16:56;;;;;;;2.60;1.50;;;24.70;54.70;;;;;;220196;1270;22526;-51
2022/07/13 23:22:45;;;;;;;3.70;1.60;;;24.70;54.70;;;;;;220170;1268;24342;-52
2022/07/13 23:28:12;;;;;;;2.20;1.40;;;24.70;54.70;;;;;;220356;1268;23096;-51
2022/07/13 23:33:16;;;;;;;2.30;1.50;;;24.70;55.00;;;;;;220588;1267;22623;-50
2022/07/13 23:38:26;;;;;;;2.30;1.50;;;24.70;54.70;;;;;;220202;1270;22554;-50
2022/07/13 23:43:32;;;;;;;2.20;1.60;;;24.70;54.80;;;;;;220295;1267;26500;-54
2022/07/13 23:48:37;;;;;;;2.00;1.50;;;24.70;54.80;;;;;;220106;1267;25378;-50
2022/07/13 23:53:41;;;;;;;2.40;1.60;;;24.70;55.20;;;;;;220504;1270;26485;-51
2022/07/13 23:58:47;;;;;;;2.40;1.60;;;24.70;55.20;;;;;;220516;1268;24212;-51
